createdAt,value
2022-11-04T00:00:12.327Z,99.52
2022-11-04T00:02:39.023Z,100.00
2022-11-04T00:05:05.816Z,100.00
2022-11-04T00:07:50.838Z,100.00
2022-11-04T00:10:17.387Z,100.00
2022-11-04T00:12:44.042Z,100.00
2022-11-04T00:15:33.982Z,100.00
2022-11-04T00:18:00.552Z,100.00
2022-11-04T00:20:45.491Z,100.00
2022-11-04T00:23:30.375Z,100.00
2022-11-04T00:26:15.534Z,100.00
2022-11-04T00:28:44.943Z,100.00
2022-11-04T00:31:30.497Z,100.00
2022-11-04T00:33:58.591Z,100.00
2022-11-04T00:36:26.102Z,100.00
2022-11-04T00:38:53.610Z,100.00
2022-11-04T00:41:26.737Z,100.00
2022-11-04T00:43:59.017Z,100.00
2022-11-04T00:46:26.908Z,100.00
2022-11-04T00:48:53.848Z,100.00
2022-11-04T00:51:21.589Z,100.00
2022-11-04T00:53:48.956Z,100.00
2022-11-04T00:56:15.546Z,100.00
2022-11-04T00:58:42.100Z,100.00
2022-11-04T01:01:17.771Z,100.00
2022-11-04T01:03:45.969Z,100.00
2022-11-04T01:06:12.624Z,99.85
2022-11-04T01:08:39.361Z,99.40
2022-11-04T01:11:08.401Z,98.77
2022-11-04T01:13:35.446Z,97.78
2022-11-04T01:16:05.592Z,98.36
2022-11-04T01:18:32.566Z,98.19
2022-11-04T01:21:03.813Z,97.80
2022-11-04T01:23:30.504Z,98.09
2022-11-04T01:25:57.442Z,98.63
2022-11-04T01:28:24.033Z,98.01
2022-11-04T01:30:50.605Z,98.09
2022-11-04T01:33:17.198Z,98.64
2022-11-04T01:35:43.811Z,97.57
2022-11-04T01:38:11.276Z,97.73
2022-11-04T01:40:39.904Z,96.18
2022-11-04T01:43:18.247Z,96.36
2022-11-04T01:45:52.126Z,96.77
2022-11-04T01:48:26.902Z,96.64
2022-11-04T01:50:54.546Z,97.52
2022-11-04T01:53:32.490Z,97.59
2022-11-04T01:56:02.532Z,97.72
2022-11-04T01:58:33.837Z,98.55
2022-11-04T02:01:01.606Z,97.86
2022-11-04T02:03:35.041Z,97.34
2022-11-04T02:06:02.887Z,97.74
2022-11-04T02:08:30.072Z,96.89
2022-11-04T02:11:00.381Z,95.61
2022-11-04T02:13:28.897Z,95.71
2022-11-04T02:16:10.645Z,95.72
2022-11-04T02:18:52.533Z,96.38
2022-11-04T02:21:40.308Z,96.28
2022-11-04T02:24:42.230Z,94.88
2022-11-04T02:27:20.684Z,94.77
2022-11-04T02:29:55.129Z,94.24
2022-11-04T02:32:25.141Z,95.07
2022-11-04T02:35:16.293Z,94.94
2022-11-04T02:37:49.996Z,95.99
2022-11-04T02:40:41.254Z,94.30
2022-11-04T02:43:24.314Z,93.39
2022-11-04T02:45:59.561Z,93.83
2022-11-04T02:48:49.402Z,93.55
2022-11-04T02:51:27.912Z,94.83
2022-11-04T02:54:06.940Z,95.11
2022-11-04T02:56:37.524Z,96.09
2022-11-04T02:59:31.757Z,95.73
2022-11-04T03:02:01.292Z,95.64
2022-11-04T03:04:33.390Z,95.69
2022-11-04T03:07:03.346Z,95.58
2022-11-04T03:09:32.469Z,95.01
2022-11-04T03:12:06.073Z,96.17
2022-11-04T03:14:48.789Z,95.58
2022-11-04T03:17:45.276Z,94.57
2022-11-04T03:20:19.220Z,94.80
2022-11-04T03:22:46.606Z,94.53
2022-11-04T03:25:13.737Z,94.53
2022-11-04T03:27:49.221Z,94.06
2022-11-04T03:30:21.647Z,93.97
2022-11-04T03:32:48.238Z,93.97
2022-11-04T03:35:16.444Z,93.75
2022-11-04T03:37:44.630Z,94.44
2022-11-04T03:40:12.927Z,94.30
2022-11-04T03:43:03.389Z,94.42
2022-11-04T03:45:30.053Z,93.55
2022-11-04T03:47:58.117Z,94.55
2022-11-04T03:50:32.693Z,94.00
2022-11-04T03:53:00.441Z,94.83
2022-11-04T03:55:51.194Z,94.87
2022-11-04T03:58:32.746Z,94.12
2022-11-04T04:01:12.185Z,93.67
2022-11-04T04:03:48.045Z,93.77
2022-11-04T04:06:25.269Z,94.58
2022-11-04T04:09:05.385Z,94.01
2022-11-04T04:11:58.126Z,93.67
2022-11-04T04:14:42.443Z,95.03
2022-11-04T04:17:31.118Z,95.09
2022-11-04T04:20:02.226Z,94.79
2022-11-04T04:22:43.193Z,95.29
2022-11-04T04:25:31.256Z,96.00
2022-11-04T04:27:59.259Z,97.07
2022-11-04T04:30:26.394Z,95.89
2022-11-04T04:32:58.186Z,96.83
2022-11-04T04:35:43.751Z,94.87
2022-11-04T04:38:35.049Z,94.99
2022-11-04T04:41:42.097Z,94.27
2022-11-04T04:44:53.152Z,93.99
2022-11-04T04:47:24.080Z,93.86
2022-11-04T04:49:55.852Z,94.69
2022-11-04T04:52:24.515Z,95.61
2022-11-04T04:54:51.134Z,95.54
2022-11-04T04:57:17.715Z,96.05
2022-11-04T04:59:44.374Z,96.42
2022-11-04T05:02:11.031Z,96.24
2022-11-04T05:04:37.741Z,96.87
2022-11-04T05:07:04.310Z,97.77
2022-11-04T05:09:30.898Z,97.36
2022-11-04T05:11:57.850Z,97.28
2022-11-04T05:14:24.581Z,97.96
2022-11-04T05:16:51.151Z,97.40
2022-11-04T05:19:17.746Z,97.17
2022-11-04T05:21:44.329Z,97.42
2022-11-04T05:24:11.161Z,98.02
2022-11-04T05:26:37.753Z,98.35
2022-11-04T05:29:04.569Z,98.20
2022-11-04T05:31:31.226Z,98.66
2022-11-04T05:33:59.763Z,99.87
2022-11-04T05:36:26.374Z,99.16
2022-11-04T05:38:55.651Z,99.42
2022-11-04T05:41:28.468Z,99.05
2022-11-04T05:43:57.113Z,99.94
2022-11-04T05:46:24.711Z,99.65
2022-11-04T05:48:51.483Z,99.66
2022-11-04T05:51:21.502Z,99.62
2022-11-04T05:53:48.343Z,99.49
2022-11-04T05:56:15.073Z,99.38
2022-11-04T05:58:41.686Z,99.84
2022-11-04T06:01:41.560Z,99.57
2022-11-04T06:04:14.754Z,99.61
2022-11-04T06:06:41.800Z,100.00
2022-11-04T06:09:08.690Z,99.71
2022-11-04T06:11:37.137Z,99.37
2022-11-04T06:14:04.076Z,99.75
2022-11-04T06:16:30.801Z,100.00
2022-11-04T06:19:01.586Z,100.00
2022-11-04T06:21:33.469Z,100.00
2022-11-04T06:24:00.503Z,100.00
2022-11-04T06:26:28.677Z,100.00
2022-11-04T06:28:56.642Z,100.00
2022-11-04T06:31:23.382Z,100.00
2022-11-04T06:33:49.978Z,100.00
2022-11-04T06:36:17.259Z,100.00
2022-11-04T06:38:44.136Z,98.65
2022-11-04T06:41:13.684Z,98.60
2022-11-04T06:43:40.352Z,98.12
2022-11-04T06:46:25.919Z,97.32
2022-11-04T06:48:52.887Z,96.99
2022-11-04T06:51:19.607Z,97.46
2022-11-04T06:53:46.253Z,97.54
2022-11-04T06:56:12.960Z,98.58
2022-11-04T06:58:39.617Z,98.84
2022-11-04T07:01:13.483Z,99.72
2022-11-04T07:03:41.283Z,99.41
2022-11-04T07:06:09.385Z,99.44
2022-11-04T07:08:36.254Z,99.05
2022-11-04T07:11:03.511Z,98.84
2022-11-04T07:13:30.117Z,99.54
2022-11-04T07:15:57.295Z,99.10
2022-11-04T07:18:23.939Z,100.00
2022-11-04T07:20:50.538Z,99.51
2022-11-04T07:23:17.457Z,99.59
2022-11-04T07:25:44.101Z,99.41
2022-11-04T07:28:10.982Z,98.71
2022-11-04T07:30:37.692Z,96.87
2022-11-04T07:33:04.277Z,97.14
2022-11-04T07:35:30.876Z,97.61
2022-11-04T07:37:57.479Z,96.87
2022-11-04T07:40:24.058Z,95.21
2022-11-04T07:42:50.896Z,94.95
2022-11-04T07:45:18.239Z,92.77
2022-11-04T07:47:44.935Z,91.87
2022-11-04T07:50:11.767Z,91.79
2022-11-04T07:52:38.595Z,91.06
2022-11-04T07:55:06.036Z,89.90
2022-11-04T07:57:32.634Z,90.13
2022-11-04T07:59:59.616Z,89.22
2022-11-04T08:02:31.106Z,90.58
2022-11-04T08:05:00.628Z,91.16
2022-11-04T08:07:27.217Z,92.14
2022-11-04T08:09:53.795Z,92.77
2022-11-04T08:12:22.167Z,91.02
2022-11-04T08:14:48.729Z,91.04
2022-11-04T08:17:15.295Z,92.12
2022-11-04T08:19:41.857Z,92.16
2022-11-04T08:22:09.251Z,91.13
2022-11-04T08:24:35.826Z,90.36
2022-11-04T08:27:04.689Z,89.52
2022-11-04T08:29:31.300Z,89.38
2022-11-04T08:31:57.871Z,90.71
2022-11-04T08:34:24.452Z,89.92
2022-11-04T08:36:53.161Z,89.16
2022-11-04T08:39:20.005Z,88.63
2022-11-04T08:41:46.654Z,88.20
2022-11-04T08:44:14.267Z,88.74
2022-11-04T08:46:42.523Z,86.37
2022-11-04T08:49:11.258Z,85.82
2022-11-04T08:51:42.911Z,86.47
2022-11-04T08:54:10.422Z,86.55
2022-11-04T08:56:40.747Z,86.56
2022-11-04T08:59:08.467Z,87.20
2022-11-04T09:01:36.760Z,88.25
2022-11-04T09:04:04.602Z,87.24
2022-11-04T09:06:35.945Z,85.99
2022-11-04T09:09:04.992Z,86.67
2022-11-04T09:11:33.604Z,87.16
2022-11-04T09:14:01.332Z,85.85
2022-11-04T09:16:29.984Z,84.34
2022-11-04T09:18:58.019Z,84.06
2022-11-04T09:21:26.061Z,83.72
2022-11-04T09:23:52.683Z,83.89
2022-11-04T09:26:19.530Z,84.03
2022-11-04T09:28:46.157Z,84.34
2022-11-04T09:31:18.626Z,83.12
2022-11-04T09:33:45.670Z,81.22
2022-11-04T09:36:14.198Z,80.51
2022-11-04T09:38:42.296Z,79.27
2022-11-04T09:41:47.263Z,79.75
2022-11-04T09:44:30.956Z,79.70
2022-11-04T09:47:03.026Z,81.12
2022-11-04T09:49:36.255Z,82.03
2022-11-04T09:52:08.739Z,80.97
2022-11-04T09:54:47.257Z,81.51
2022-11-04T09:57:18.647Z,82.53
2022-11-04T09:59:47.089Z,81.89
2022-11-04T10:02:38.820Z,81.01
2022-11-04T10:05:32.810Z,78.94
2022-11-04T10:08:21.015Z,80.43
2022-11-04T10:11:05.418Z,80.04
2022-11-04T10:13:55.025Z,79.59
2022-11-04T10:16:48.935Z,80.82
2022-11-04T10:19:21.725Z,81.09
2022-11-04T10:22:10.587Z,81.91
2022-11-04T10:24:43.434Z,82.21
2022-11-04T10:27:17.633Z,81.15
2022-11-04T10:29:45.629Z,79.04
2022-11-04T10:32:22.687Z,78.19
2022-11-04T10:34:56.579Z,75.96
2022-11-04T10:37:25.614Z,75.20
2022-11-04T10:40:01.401Z,74.13
2022-11-04T10:42:28.316Z,75.32
2022-11-04T10:44:55.009Z,74.71
2022-11-04T10:47:26.432Z,74.90
2022-11-04T10:50:31.801Z,74.68
2022-11-04T10:53:12.801Z,79.05
2022-11-04T10:55:57.526Z,77.89
2022-11-04T10:58:27.351Z,79.11
2022-11-04T11:00:54.681Z,79.63
2022-11-04T11:03:34.869Z,79.15
2022-11-04T11:06:24.987Z,78.64
2022-11-04T11:08:54.838Z,79.42
2022-11-04T11:11:47.833Z,78.48
2022-11-04T11:14:48.661Z,76.92
2022-11-04T11:17:15.219Z,78.11
2022-11-04T11:19:58.154Z,79.32
2022-11-04T11:22:39.830Z,79.14
2022-11-04T11:25:24.457Z,75.87
2022-11-04T11:27:54.650Z,74.51
2022-11-04T11:30:28.230Z,75.10
2022-11-04T11:33:04.026Z,74.41
2022-11-04T11:35:42.007Z,74.21
2022-11-04T11:38:19.055Z,76.04
2022-11-04T11:41:03.808Z,76.51
2022-11-04T11:43:36.692Z,76.44
2022-11-04T11:46:03.496Z,76.18
2022-11-04T11:48:38.595Z,75.18
2022-11-04T11:51:06.902Z,74.05
2022-11-04T11:53:38.183Z,73.83
2022-11-04T11:56:26.411Z,74.84
2022-11-04T12:02:25.704Z,75.97
2022-11-04T12:10:54.345Z,74.83
2022-11-04T12:13:27.222Z,73.95
2022-11-04T12:16:31.211Z,73.92
2022-11-04T12:19:03.823Z,73.22
2022-11-04T12:21:39.894Z,74.07
2022-11-04T12:24:24.464Z,73.99
2022-11-04T12:27:15.340Z,73.00
2022-11-04T12:30:07.794Z,73.95
2022-11-04T12:32:53.217Z,74.92
2022-11-04T12:35:35.523Z,75.21
2022-11-04T12:38:23.662Z,75.22
2022-11-04T12:41:58.829Z,76.48
2022-11-04T12:44:33.537Z,74.23
2022-11-04T12:47:13.767Z,73.25
2022-11-04T12:49:46.271Z,74.24
2022-11-04T12:52:25.295Z,73.77
2022-11-04T12:54:58.511Z,72.28
2022-11-04T12:58:04.239Z,70.87
2022-11-04T13:00:32.577Z,71.37
2022-11-04T13:03:11.342Z,73.80
2022-11-04T13:06:01.996Z,72.98
2022-11-04T13:08:36.633Z,73.38
2022-11-04T13:11:24.311Z,72.75
2022-11-04T13:14:16.286Z,74.51
2022-11-04T13:16:46.403Z,73.90
2022-11-04T13:19:34.697Z,74.49
2022-11-04T13:22:07.274Z,75.34
2022-11-04T13:24:38.627Z,75.42
2022-11-04T13:27:18.983Z,75.98
2022-11-04T13:29:47.535Z,76.53
2022-11-04T13:32:28.571Z,76.86
2022-11-04T13:35:08.189Z,77.69
2022-11-04T13:37:43.130Z,77.24
2022-11-04T13:40:18.211Z,77.15
2022-11-04T13:43:28.218Z,77.39
2022-11-04T13:45:56.506Z,76.70
2022-11-04T13:48:26.736Z,76.15
2022-11-04T13:51:00.822Z,75.82
2022-11-04T13:53:40.886Z,74.86
2022-11-04T13:56:31.682Z,75.42
2022-11-04T13:58:58.384Z,75.95
2022-11-04T14:01:25.134Z,76.35
2022-11-04T14:04:29.145Z,76.98
2022-11-04T14:06:59.519Z,76.78
2022-11-04T14:09:28.903Z,77.31
2022-11-04T14:12:10.598Z,77.07
2022-11-04T14:14:38.813Z,76.97
2022-11-04T14:17:34.606Z,78.15
2022-11-04T14:20:31.770Z,78.41
2022-11-04T14:23:03.737Z,78.56
2022-11-04T14:25:44.178Z,78.38
2022-11-04T14:28:10.780Z,78.79
2022-11-04T14:30:37.532Z,79.65
2022-11-04T14:33:08.489Z,79.51
2022-11-04T14:35:36.201Z,80.16
2022-11-04T14:38:20.018Z,81.18
2022-11-04T14:40:54.044Z,81.85
2022-11-04T14:43:44.297Z,84.00
2022-11-04T14:46:18.112Z,83.50
2022-11-04T14:48:52.099Z,82.76
2022-11-04T14:51:33.608Z,82.55
2022-11-04T14:54:18.779Z,84.03
2022-11-04T14:56:46.817Z,84.18
2022-11-04T14:59:27.967Z,83.36
2022-11-04T15:01:55.478Z,83.31
2022-11-04T15:04:28.064Z,84.15
2022-11-04T15:07:02.644Z,83.96
2022-11-04T15:09:32.624Z,84.26
2022-11-04T15:12:33.491Z,84.12
2022-11-04T15:15:00.618Z,85.22
2022-11-04T15:17:31.958Z,85.23
2022-11-04T15:20:02.038Z,84.69
2022-11-04T15:22:30.447Z,84.86
2022-11-04T15:25:02.750Z,84.98
2022-11-04T15:27:30.104Z,84.79
2022-11-04T15:30:06.076Z,85.37
2022-11-04T15:32:32.655Z,85.87
2022-11-04T15:34:59.849Z,86.40
2022-11-04T15:37:28.956Z,85.78
2022-11-04T15:39:57.861Z,86.77
2022-11-04T15:42:37.134Z,86.80
2022-11-04T15:45:22.157Z,89.23
2022-11-04T15:47:49.702Z,88.53
2022-11-04T15:50:26.104Z,90.60
2022-11-04T15:52:56.009Z,90.14
2022-11-04T15:55:25.949Z,90.21
2022-11-04T15:57:55.435Z,89.93
2022-11-04T16:00:24.932Z,89.78
2022-11-04T16:02:55.185Z,89.64
2022-11-04T16:05:25.436Z,92.20
2022-11-04T16:07:54.363Z,90.96
2022-11-04T16:10:24.886Z,90.84
2022-11-04T16:13:16.715Z,91.15
2022-11-04T16:15:50.384Z,92.47
2022-11-04T16:18:42.839Z,91.67
2022-11-04T16:21:20.311Z,91.52
2022-11-04T16:23:51.553Z,91.70
2022-11-04T16:26:24.657Z,93.21
2022-11-04T16:28:57.696Z,95.24
2022-11-04T16:31:33.394Z,94.87
2022-11-04T16:34:00.583Z,95.78
2022-11-04T16:36:34.013Z,94.64
2022-11-04T16:39:04.646Z,95.61
2022-11-04T16:41:37.608Z,93.94
2022-11-04T16:44:05.976Z,92.96
2022-11-04T16:46:34.162Z,93.35
2022-11-04T16:49:00.748Z,93.41
2022-11-04T16:51:27.351Z,93.46
2022-11-04T16:53:54.887Z,93.09
2022-11-04T16:56:24.941Z,93.42
2022-11-04T16:58:52.815Z,97.32
2022-11-04T17:01:21.255Z,97.60
2022-11-04T17:03:48.120Z,98.50
2022-11-04T17:06:16.661Z,98.56
2022-11-04T17:08:43.617Z,98.99
2022-11-04T17:11:11.077Z,99.11
2022-11-04T17:13:38.247Z,99.05
2022-11-04T17:16:13.014Z,99.79
2022-11-04T17:18:39.679Z,100.00
2022-11-04T17:21:08.010Z,100.00
2022-11-04T17:23:34.598Z,100.00
2022-11-04T17:26:01.850Z,100.00
2022-11-04T17:28:28.438Z,100.00
2022-11-04T17:30:55.218Z,100.00
2022-11-04T17:33:22.144Z,100.00
2022-11-04T17:35:51.374Z,100.00
2022-11-04T17:38:18.826Z,100.00
2022-11-04T17:41:04.658Z,100.00
2022-11-04T17:43:49.886Z,100.00
2022-11-04T17:46:35.413Z,100.00
2022-11-04T17:49:08.593Z,100.00
2022-11-04T17:51:35.986Z,100.00
2022-11-04T17:54:02.966Z,100.00
2022-11-04T17:56:30.757Z,100.00
2022-11-04T17:59:00.383Z,100.00
2022-11-04T18:01:27.720Z,100.00
2022-11-04T18:03:54.739Z,100.00
2022-11-04T18:06:22.290Z,100.00
2022-11-04T18:08:49.196Z,100.00
2022-11-04T18:11:35.964Z,100.00
2022-11-04T18:14:02.677Z,98.10
2022-11-04T18:16:29.293Z,97.98
2022-11-04T18:18:58.912Z,98.58
2022-11-04T18:21:26.600Z,99.51
2022-11-04T18:23:55.266Z,98.54
2022-11-04T18:26:22.147Z,100.00
2022-11-04T18:28:48.805Z,100.00
2022-11-04T18:31:23.336Z,100.00
2022-11-04T18:33:50.435Z,100.00
2022-11-04T18:36:17.046Z,100.00
2022-11-04T18:38:44.035Z,100.00
2022-11-04T18:41:10.814Z,100.00
2022-11-04T18:43:37.462Z,100.00
2022-11-04T18:46:09.052Z,100.00
2022-11-04T18:48:37.088Z,100.00
2022-11-04T18:51:05.486Z,100.00
2022-11-04T18:53:32.087Z,100.00
2022-11-04T18:56:07.369Z,100.00
2022-11-04T18:58:35.816Z,100.00
2022-11-04T19:01:17.539Z,100.00
2022-11-04T19:03:44.412Z,100.00
2022-11-04T19:06:17.671Z,100.00
2022-11-04T19:08:46.874Z,100.00
2022-11-04T19:11:35.585Z,100.00
2022-11-04T19:14:09.407Z,100.00
2022-11-04T19:16:36.341Z,100.00
2022-11-04T19:19:06.383Z,100.00
2022-11-04T19:21:33.688Z,100.00
2022-11-04T19:24:00.566Z,100.00
2022-11-04T19:26:30.328Z,100.00
2022-11-04T19:28:57.806Z,100.00
2022-11-04T19:31:28.065Z,100.00
2022-11-04T19:33:58.040Z,100.00
2022-11-04T19:36:25.620Z,100.00
2022-11-04T19:38:54.717Z,100.00
2022-11-04T19:41:41.602Z,100.00
2022-11-04T19:44:13.665Z,100.00
2022-11-04T19:46:40.406Z,100.00
2022-11-04T19:49:08.004Z,100.00
2022-11-04T19:51:35.790Z,100.00
2022-11-04T19:54:02.781Z,100.00
2022-11-04T19:56:30.611Z,100.00
2022-11-04T19:59:00.477Z,100.00
2022-11-04T20:01:31.641Z,100.00
2022-11-04T20:03:58.736Z,100.00
2022-11-04T20:06:25.574Z,100.00
2022-11-04T20:08:53.007Z,100.00
2022-11-04T20:11:20.525Z,100.00
2022-11-04T20:13:47.922Z,100.00
2022-11-04T20:16:29.852Z,100.00
2022-11-04T20:19:00.704Z,100.00
2022-11-04T20:21:30.292Z,100.00
2022-11-04T20:24:02.254Z,100.00
2022-11-04T20:26:30.902Z,100.00
2022-11-04T20:29:00.880Z,100.00
2022-11-04T20:31:29.907Z,100.00
2022-11-04T20:33:57.088Z,100.00
2022-11-04T20:36:26.487Z,100.00
2022-11-04T20:39:00.988Z,100.00
2022-11-04T20:41:28.342Z,100.00
2022-11-04T20:43:55.927Z,100.00
2022-11-04T20:46:28.166Z,100.00
2022-11-04T20:48:56.358Z,100.00
2022-11-04T20:51:25.340Z,100.00
2022-11-04T20:53:56.261Z,100.00
2022-11-04T20:56:25.317Z,100.00
2022-11-04T20:58:58.600Z,100.00
2022-11-04T21:01:28.990Z,100.00
2022-11-04T21:04:18.993Z,100.00
2022-11-04T21:06:47.943Z,100.00
2022-11-04T21:09:16.538Z,100.00
2022-11-04T21:11:43.382Z,100.00
2022-11-04T21:14:14.313Z,100.00
2022-11-04T21:16:40.965Z,100.00
2022-11-04T21:19:08.076Z,100.00
2022-11-04T21:21:35.028Z,100.00
2022-11-04T21:24:06.586Z,100.00
2022-11-04T21:26:35.253Z,100.00
2022-11-04T21:29:06.010Z,100.00
2022-11-04T21:31:34.325Z,100.00
2022-11-04T21:34:01.161Z,100.00
2022-11-04T21:36:28.120Z,100.00
2022-11-04T21:38:55.034Z,100.00
2022-11-04T21:41:27.998Z,100.00
2022-11-04T21:43:56.547Z,100.00
2022-11-04T21:46:24.051Z,100.00
2022-11-04T21:48:50.727Z,100.00
2022-11-04T21:51:22.231Z,100.00
2022-11-04T21:53:48.977Z,100.00
2022-11-04T21:56:22.125Z,100.00
2022-11-04T21:58:48.895Z,100.00
2022-11-04T22:01:18.726Z,100.00
2022-11-04T22:03:52.243Z,100.00
2022-11-04T22:06:19.277Z,100.00
2022-11-04T22:08:49.337Z,100.00
2022-11-04T22:11:22.554Z,100.00
2022-11-04T22:13:53.270Z,100.00
2022-11-04T22:16:22.685Z,100.00
2022-11-04T22:18:52.757Z,100.00
2022-11-04T22:21:19.916Z,100.00
2022-11-04T22:23:46.542Z,100.00
2022-11-04T22:26:22.250Z,100.00
2022-11-04T22:28:48.966Z,100.00
2022-11-04T22:31:22.632Z,100.00
2022-11-04T22:33:50.540Z,100.00
2022-11-04T22:36:18.071Z,100.00
2022-11-04T22:38:44.739Z,100.00
2022-11-04T22:41:14.509Z,100.00
2022-11-04T22:43:41.349Z,100.00
2022-11-04T22:46:15.634Z,100.00
2022-11-04T22:48:42.880Z,100.00
2022-11-04T22:51:10.343Z,100.00
2022-11-04T22:53:38.611Z,100.00
2022-11-04T22:56:07.500Z,100.00
2022-11-04T22:58:34.370Z,100.00
2022-11-04T23:01:05.190Z,100.00
2022-11-04T23:03:32.537Z,100.00
2022-11-04T23:06:01.680Z,100.00
2022-11-04T23:08:30.101Z,100.00
2022-11-04T23:11:18.567Z,100.00
2022-11-04T23:14:09.487Z,100.00
2022-11-04T23:16:55.386Z,100.00
2022-11-04T23:19:24.713Z,100.00
2022-11-04T23:22:13.486Z,100.00
2022-11-04T23:24:58.582Z,100.00
2022-11-04T23:27:43.804Z,100.00
2022-11-04T23:30:21.772Z,100.00
2022-11-04T23:32:49.604Z,100.00
2022-11-04T23:35:35.562Z,100.00
2022-11-04T23:38:02.348Z,100.00
2022-11-04T23:40:31.134Z,100.00
2022-11-04T23:42:57.983Z,100.00
2022-11-04T23:45:44.231Z,100.00
2022-11-04T23:48:30.040Z,100.00
2022-11-04T23:51:16.696Z,100.00
2022-11-04T23:54:02.546Z,100.00
2022-11-04T23:56:47.865Z,100.00
2022-11-04T23:59:34.996Z,100.00
